Time;durP1;ratioP1;P1;durP2;ratioP2;P2;SDS_P1;SDS_P2;PMS_P1;PMS_P2;Temp;Humidity;BMP_temperature;BMP_pressure;BME280_temperature;BME280_humidity;BME280_pressure;Samples;Min_cycle;Max_cycle;Signal;HPM_P1;HPM_P2
2023/12/22 00:01:42;;;;;;;35.93;28.17;;;7.60;99.90;;;;;;6343099;22;20013;-71
2023/12/22 00:04:08;;;;;;;32.77;21.13;;;7.60;99.90;;;;;;6370255;22;19998;-70
2023/12/22 00:06:34;;;;;;;28.77;19.27;;;7.60;99.90;;;;;;6370949;22;20081;-70
2023/12/22 00:08:59;;;;;;;31.77;21.90;;;7.60;99.90;;;;;;6371058;22;20009;-70
2023/12/22 00:11:25;;;;;;;31.00;21.43;;;7.50;99.90;;;;;;6370849;22;20003;-71
2023/12/22 00:13:51;;;;;;;29.90;21.57;;;7.50;99.90;;;;;;6370494;22;20006;-70
2023/12/22 00:16:17;;;;;;;34.20;21.97;;;7.60;99.90;;;;;;6370487;22;20010;-70
2023/12/22 00:18:43;;;;;;;35.10;21.10;;;7.60;99.90;;;;;;6370471;22;20066;-70
2023/12/22 00:21:12;;;;;;;28.77;20.30;;;7.60;99.90;;;;;;6370537;22;20030;-71
2023/12/22 00:23:38;;;;;;;33.73;23.10;;;7.60;99.90;;;;;;6370724;22;19994;-70
2023/12/22 00:26:06;;;;;;;38.23;24.73;;;7.60;99.90;;;;;;6370385;22;20018;-71
2023/12/22 00:28:32;;;;;;;36.80;24.73;;;7.60;99.90;;;;;;6370566;22;20487;-71
2023/12/22 00:30:58;;;;;;;39.50;25.37;;;7.60;99.90;;;;;;6370685;22;20029;-71
2023/12/22 00:33:25;;;;;;;42.00;28.07;;;7.60;99.90;;;;;;6342555;22;19999;-71
2023/12/22 00:35:51;;;;;;;46.77;30.43;;;7.60;99.90;;;;;;6370448;22;20014;-71
2023/12/22 00:38:17;;;;;;;47.77;31.27;;;7.60;99.90;;;;;;6370539;22;19998;-71
2023/12/22 00:40:42;;;;;;;43.30;29.53;;;7.50;99.90;;;;;;6370320;22;20078;-71
2023/12/22 00:43:08;;;;;;;44.10;31.27;;;7.50;99.90;;;;;;6370195;22;19998;-70
2023/12/22 00:45:34;;;;;;;47.40;30.23;;;7.50;99.90;;;;;;6370374;22;19998;-70
2023/12/22 00:48:00;;;;;;;48.60;30.03;;;7.50;99.90;;;;;;6370269;22;20013;-70
2023/12/22 00:50:26;;;;;;;43.60;30.30;;;7.40;99.90;;;;;;6370715;22;19995;-71
2023/12/22 00:52:51;;;;;;;48.77;30.80;;;7.40;99.90;;;;;;6370580;22;20002;-71
2023/12/22 00:55:17;;;;;;;47.53;30.13;;;7.40;99.90;;;;;;6370016;22;20029;-70
2023/12/22 00:57:43;;;;;;;47.80;30.20;;;7.40;99.90;;;;;;6369858;22;20037;-71
2023/12/22 01:00:12;;;;;;;43.10;30.77;;;7.30;99.90;;;;;;6369991;22;19994;-70
2023/12/22 01:02:38;;;;;;;41.87;29.50;;;7.40;99.90;;;;;;6370157;22;20006;-71
2023/12/22 01:05:04;;;;;;;43.37;29.73;;;7.30;99.90;;;;;;6370026;22;20446;-71
2023/12/22 01:07:30;;;;;;;42.43;28.50;;;7.30;99.90;;;;;;6370477;22;20090;-71
2023/12/22 01:10:01;;;;;;;44.20;30.47;;;7.30;99.90;;;;;;6369920;22;20462;-71
2023/12/22 01:12:27;;;;;;;41.03;27.33;;;7.30;99.90;;;;;;6369767;22;20071;-71
2023/12/22 01:14:54;;;;;;;44.33;29.37;;;7.30;99.90;;;;;;6369999;22;20013;-70
2023/12/22 01:17:19;;;;;;;39.73;27.60;;;7.30;99.90;;;;;;6342392;22;20093;-70
2023/12/22 01:19:45;;;;;;;39.50;27.77;;;7.30;99.90;;;;;;6370569;22;20034;-71
2023/12/22 01:22:11;;;;;;;42.90;28.70;;;7.30;99.90;;;;;;6370257;22;20085;-71
2023/12/22 01:24:39;;;;;;;38.57;26.77;;;7.30;99.90;;;;;;6369826;22;20010;-71
2023/12/22 01:27:05;;;;;;;39.53;26.83;;;7.30;99.90;;;;;;6370226;22;20055;-71
2023/12/22 01:29:31;;;;;;;39.97;27.07;;;7.30;99.90;;;;;;6369950;22;20324;-71
2023/12/22 01:31:56;;;;;;;36.40;27.00;;;7.30;99.90;;;;;;6369776;22;20005;-71
2023/12/22 01:34:22;;;;;;;41.83;26.27;;;7.30;99.90;;;;;;6369980;22;20031;-71
2023/12/22 01:36:49;;;;;;;33.80;24.37;;;7.30;99.90;;;;;;6369814;22;20006;-71
2023/12/22 01:39:15;;;;;;;35.57;25.73;;;7.30;99.90;;;;;;6369868;22;20058;-70
2023/12/22 01:41:41;;;;;;;36.17;25.30;;;7.30;99.90;;;;;;6369758;22;20477;-71
2023/12/22 01:44:07;;;;;;;36.13;23.97;;;7.30;99.90;;;;;;6369869;22;19998;-71
2023/12/22 01:46:33;;;;;;;30.53;22.27;;;7.30;99.90;;;;;;6370179;22;20328;-71
2023/12/22 01:49:03;;;;;;;32.97;22.67;;;7.30;99.90;;;;;;6369892;22;19999;-71
2023/12/22 01:51:33;;;;;;;35.33;22.23;;;7.30;99.90;;;;;;6369491;22;20048;-71
2023/12/22 01:54:00;;;;;;;28.87;20.13;;;7.30;99.90;;;;;;6369810;22;19994;-71
2023/12/22 01:56:26;;;;;;;34.43;20.50;;;7.30;99.90;;;;;;6341889;22;20018;-70
2023/12/22 01:58:59;;;;;;;30.17;19.43;;;7.30;99.90;;;;;;6367723;22;19994;-71
2023/12/22 02:01:25;;;;;;;25.60;17.92;;;7.30;99.90;;;;;;6366792;22;20006;-71
2023/12/22 02:03:52;;;;;;;25.47;18.63;;;7.30;99.90;;;;;;6366723;22;20432;-71
2023/12/22 02:06:19;;;;;;;31.03;18.60;;;7.30;99.90;;;;;;6369343;22;20085;-70
2023/12/22 02:08:47;;;;;;;27.73;18.77;;;7.30;99.90;;;;;;6369728;22;19998;-71
2023/12/22 02:11:16;;;;;;;26.13;18.30;;;7.30;99.90;;;;;;6369773;22;20067;-71
2023/12/22 02:13:44;;;;;;;28.53;19.00;;;7.30;99.90;;;;;;6369341;22;19998;-70
2023/12/22 02:16:23;;;;;;;31.43;19.73;;;7.40;99.90;;;;;;6369433;22;20041;-70
2023/12/22 02:18:52;;;;;;;32.07;19.47;;;7.40;99.90;;;;;;6369269;22;20003;-71
2023/12/22 02:21:18;;;;;;;27.93;18.40;;;7.40;99.90;;;;;;6369311;22;19998;-71
2023/12/22 02:23:44;;;;;;;28.87;18.80;;;7.40;99.90;;;;;;6369972;22;20001;-70
2023/12/22 02:26:24;;;;;;;33.57;19.83;;;7.40;99.90;;;;;;6369379;22;20024;-70
2023/12/22 02:28:51;;;;;;;32.63;19.67;;;7.40;99.90;;;;;;6368966;22;20404;-70
2023/12/22 02:31:32;;;;;;;34.30;21.23;;;7.50;99.90;;;;;;6369169;22;20008;-71
2023/12/22 02:33:59;;;;;;;32.57;22.07;;;7.50;99.90;;;;;;6369251;22;20005;-70
2023/12/22 02:36:26;;;;;;;34.53;23.17;;;7.40;99.90;;;;;;6369184;22;20011;-71
2023/12/22 02:38:54;;;;;;;35.47;23.43;;;7.50;99.90;;;;;;6341292;22;20057;-70
2023/12/22 02:41:21;;;;;;;36.10;23.90;;;7.40;99.90;;;;;;6369324;22;20009;-70
2023/12/22 02:43:47;;;;;;;34.23;23.80;;;7.40;99.90;;;;;;6369197;22;19999;-70
2023/12/22 02:46:16;;;;;;;36.40;24.17;;;7.40;99.90;;;;;;6369952;22;20324;-71
2023/12/22 02:48:42;;;;;;;33.20;23.30;;;7.30;99.90;;;;;;6369516;22;20009;-71
2023/12/22 02:51:08;;;;;;;33.60;23.20;;;7.30;99.90;;;;;;6369481;22;20393;-70
2023/12/22 02:53:33;;;;;;;33.77;23.90;;;7.20;99.90;;;;;;6369501;22;20082;-70
2023/12/22 02:55:59;;;;;;;34.33;24.47;;;7.20;99.90;;;;;;6341529;22;20010;-70
2023/12/22 02:58:25;;;;;;;38.37;25.97;;;7.20;99.90;;;;;;6369986;22;20003;-71
2023/12/22 03:00:50;;;;;;;31.67;23.60;;;7.20;99.90;;;;;;6341710;22;20010;-70
2023/12/22 03:03:16;;;;;;;38.57;24.40;;;7.20;99.90;;;;;;6369959;22;20062;-71
2023/12/22 03:05:42;;;;;;;37.13;25.50;;;7.20;99.90;;;;;;6371342;22;20026;-70
2023/12/22 03:08:08;;;;;;;37.83;25.33;;;7.20;99.90;;;;;;6371369;22;20009;-70
2023/12/22 03:10:33;;;;;;;38.10;24.03;;;7.10;99.90;;;;;;6371535;22;20008;-71
2023/12/22 03:12:59;;;;;;;35.87;23.73;;;7.10;99.90;;;;;;6371250;22;20029;-71
2023/12/22 03:15:25;;;;;;;36.63;23.60;;;7.10;99.90;;;;;;6371103;22;20020;-70
2023/12/22 03:17:51;;;;;;;37.63;22.40;;;7.10;99.90;;;;;;6371180;22;20001;-71
2023/12/22 03:20:17;;;;;;;28.73;22.00;;;7.10;99.90;;;;;;6371144;22;19999;-70
2023/12/22 03:22:43;;;;;;;33.27;21.73;;;7.10;99.90;;;;;;6371156;22;20086;-71
2023/12/22 03:25:09;;;;;;;31.23;21.37;;;7.10;99.90;;;;;;6371206;22;20066;-71
2023/12/22 03:27:34;;;;;;;36.20;23.30;;;7.10;99.90;;;;;;6371242;22;19998;-70
2023/12/22 03:30:01;;;;;;;35.87;21.87;;;7.10;99.90;;;;;;6371094;22;20030;-71
2023/12/22 03:32:27;;;;;;;38.17;23.77;;;7.10;99.90;;;;;;6371496;22;19998;-71
2023/12/22 03:34:53;;;;;;;32.30;23.37;;;7.10;99.90;;;;;;6371827;22;20055;-70
2023/12/22 03:37:19;;;;;;;33.57;22.70;;;7.00;99.90;;;;;;6371268;22;20005;-71
2023/12/22 03:39:44;;;;;;;32.67;23.53;;;7.00;99.90;;;;;;6371188;22;20009;-70
2023/12/22 03:42:10;;;;;;;33.80;23.80;;;7.00;99.90;;;;;;6371169;22;20017;-70
2023/12/22 03:44:36;;;;;;;32.47;22.97;;;7.00;99.90;;;;;;6342978;22;20002;-71
2023/12/22 03:47:02;;;;;;;31.13;23.23;;;7.00;99.90;;;;;;6371039;22;19999;-70
2023/12/22 03:49:28;;;;;;;34.20;21.93;;;7.00;99.90;;;;;;6371786;22;20013;-70
2023/12/22 03:51:53;;;;;;;34.73;23.10;;;7.00;99.90;;;;;;6371072;22;19994;-71
2023/12/22 03:54:19;;;;;;;31.93;22.47;;;7.00;99.90;;;;;;6371373;22;20110;-70
2023/12/22 03:56:45;;;;;;;35.97;22.03;;;6.90;99.90;;;;;;6371295;22;20336;-71
2023/12/22 03:59:11;;;;;;;35.37;22.50;;;7.00;99.90;;;;;;6370929;22;20412;-71
2023/12/22 04:01:36;;;;;;;37.47;20.93;;;6.90;99.90;;;;;;6371164;22;20315;-70
2023/12/22 04:04:02;;;;;;;33.47;21.43;;;6.90;99.90;;;;;;6371009;22;20030;-71
2023/12/22 04:12:24;;;;;;;28.70;20.73;;;6.90;99.90;;;;;;6379776;22;20025;-69
2023/12/22 04:14:50;;;;;;;29.87;20.40;;;6.90;99.90;;;;;;6401835;22;20428;-69
2023/12/22 04:17:15;;;;;;;35.23;20.47;;;6.90;99.90;;;;;;6402394;22;20035;-69
2023/12/22 04:19:41;;;;;;;30.07;20.53;;;6.90;99.90;;;;;;6402725;22;20090;-69
2023/12/22 04:22:07;;;;;;;28.93;20.13;;;7.00;99.90;;;;;;6402562;22;20038;-69
2023/12/22 04:24:33;;;;;;;28.93;19.90;;;7.00;99.90;;;;;;6402469;22;19998;-69
2023/12/22 04:26:58;;;;;;;31.23;19.97;;;7.00;99.90;;;;;;6402356;22;20063;-69
2023/12/22 04:29:24;;;;;;;27.00;21.70;;;6.90;99.90;;;;;;6402225;22;20002;-69
2023/12/22 04:31:50;;;;;;;27.83;20.10;;;6.90;99.90;;;;;;6402775;22;20013;-69
2023/12/22 04:34:16;;;;;;;32.47;21.27;;;6.90;99.90;;;;;;6402139;22;20043;-69
2023/12/22 04:36:41;;;;;;;32.97;20.97;;;6.90;99.90;;;;;;6402303;22;20006;-69
2023/12/22 04:39:07;;;;;;;33.10;21.57;;;6.90;99.90;;;;;;6402562;22;20305;-69
2023/12/22 04:41:33;;;;;;;33.23;20.17;;;6.90;99.90;;;;;;6401995;22;19998;-69
2023/12/22 04:44:03;;;;;;;27.47;19.83;;;7.00;99.90;;;;;;6402406;22;20012;-69
2023/12/22 04:46:29;;;;;;;32.03;21.17;;;7.00;99.90;;;;;;6402394;22;19993;-69
2023/12/22 04:48:55;;;;;;;29.63;19.27;;;7.00;99.90;;;;;;6402383;22;20096;-70
2023/12/22 04:51:21;;;;;;;29.10;20.07;;;7.00;99.90;;;;;;6402168;22;20025;-70
2023/12/22 04:53:47;;;;;;;30.97;20.40;;;7.00;99.90;;;;;;6402380;22;19998;-70
2023/12/22 04:56:13;;;;;;;33.30;20.37;;;7.10;99.90;;;;;;6373813;22;20045;-70
2023/12/22 04:58:39;;;;;;;31.70;21.93;;;7.10;99.90;;;;;;6402403;22;20002;-69
2023/12/22 05:01:04;;;;;;;33.00;22.13;;;7.10;99.90;;;;;;6402128;22;19998;-69
2023/12/22 05:03:30;;;;;;;35.33;21.37;;;7.10;99.90;;;;;;6402251;22;20006;-69
2023/12/22 05:05:56;;;;;;;32.07;21.20;;;7.00;99.90;;;;;;6401887;22;20029;-69
2023/12/22 05:08:22;;;;;;;30.33;21.93;;;7.00;99.90;;;;;;6402573;22;20010;-69
2023/12/22 05:10:47;;;;;;;33.40;21.83;;;7.00;99.90;;;;;;6402200;22;20002;-70
2023/12/22 05:13:13;;;;;;;30.63;22.47;;;7.00;99.90;;;;;;6402331;22;20466;-70
2023/12/22 05:15:39;;;;;;;35.77;23.97;;;7.00;99.90;;;;;;6402061;22;20009;-69
2023/12/22 05:18:04;;;;;;;34.47;22.60;;;7.00;99.90;;;;;;6401980;22;19994;-69
2023/12/22 05:20:30;;;;;;;34.50;24.47;;;7.00;99.90;;;;;;6402116;22;20083;-69
2023/12/22 05:22:56;;;;;;;34.03;23.70;;;7.00;99.90;;;;;;6402069;22;19998;-69
2023/12/22 05:25:22;;;;;;;34.23;23.97;;;7.00;99.90;;;;;;6401861;22;20316;-70
2023/12/22 05:27:48;;;;;;;36.07;23.97;;;7.00;99.90;;;;;;6372886;22;20002;-70
2023/12/22 05:30:14;;;;;;;33.57;24.70;;;7.00;99.90;;;;;;6402268;22;20072;-68
2023/12/22 05:32:39;;;;;;;36.90;24.67;;;6.90;99.90;;;;;;6401873;22;20045;-69
2023/12/22 05:35:05;;;;;;;34.33;24.10;;;6.90;99.90;;;;;;6401802;22;20002;-69
2023/12/22 05:37:31;;;;;;;34.57;24.17;;;6.90;99.90;;;;;;6402012;22;20002;-70
2023/12/22 05:39:57;;;;;;;32.93;23.67;;;7.00;99.90;;;;;;6401975;22;20001;-69
2023/12/22 05:42:23;;;;;;;33.97;25.20;;;7.00;99.90;;;;;;6402197;22;20085;-68
2023/12/22 05:44:49;;;;;;;32.43;24.87;;;6.90;99.90;;;;;;6401594;22;20058;-70
2023/12/22 05:47:16;;;;;;;40.17;25.83;;;6.90;99.90;;;;;;6401577;22;20004;-70
2023/12/22 05:49:44;;;;;;;41.23;26.93;;;6.90;99.90;;;;;;6373575;22;20081;-70
2023/12/22 05:52:11;;;;;;;34.97;26.33;;;6.90;99.90;;;;;;6401951;22;20077;-71
2023/12/22 05:54:38;;;;;;;33.77;25.87;;;6.80;99.90;;;;;;6401217;22;19998;-71
2023/12/22 05:57:06;;;;;;;52.17;32.50;;;6.80;99.90;;;;;;6401309;22;20327;-69
2023/12/22 05:59:32;;;;;;;48.90;34.50;;;6.70;99.90;;;;;;6401543;22;19998;-69
2023/12/22 06:01:59;;;;;;;51.90;34.43;;;6.70;99.90;;;;;;6401597;22;20054;-69
2023/12/22 06:04:25;;;;;;;57.03;37.70;;;6.70;99.90;;;;;;6401150;22;20002;-68
2023/12/22 06:06:51;;;;;;;52.57;35.40;;;6.60;99.90;;;;;;6401580;22;19998;-68
2023/12/22 06:09:18;;;;;;;48.47;32.23;;;6.60;99.90;;;;;;6401379;22;20005;-68
2023/12/22 06:11:44;;;;;;;36.00;26.03;;;6.60;99.90;;;;;;6373283;22;20001;-69
2023/12/22 06:14:10;;;;;;;36.70;25.53;;;6.60;99.90;;;;;;6401322;22;20427;-70
2023/12/22 06:16:36;;;;;;;36.73;24.57;;;6.70;99.90;;;;;;6401283;22;20006;-70
2023/12/22 06:19:02;;;;;;;36.73;25.33;;;6.70;99.90;;;;;;6401501;22;19994;-69
2023/12/22 06:21:27;;;;;;;37.87;26.73;;;6.80;99.90;;;;;;6401685;22;20013;-71
2023/12/22 06:23:53;;;;;;;36.90;26.30;;;6.70;99.90;;;;;;6373173;22;20002;-72
2023/12/22 06:26:19;;;;;;;36.70;26.43;;;6.80;99.90;;;;;;6401852;22;20050;-67
2023/12/22 06:28:45;;;;;;;40.80;28.07;;;6.80;99.90;;;;;;6401108;22;20021;-69
2023/12/22 06:31:19;;;;;;;33.77;25.20;;;6.90;99.90;;;;;;6401060;22;19998;-69
2023/12/22 06:33:44;;;;;;;37.43;26.53;;;6.90;99.90;;;;;;6401826;22;20035;-70
2023/12/22 06:36:20;;;;;;;38.77;28.37;;;6.90;99.90;;;;;;6401429;22;20383;-70
2023/12/22 06:38:47;;;;;;;39.37;26.80;;;6.90;99.90;;;;;;6402428;22;20001;-69
2023/12/22 06:41:24;;;;;;;37.10;27.20;;;7.00;99.90;;;;;;6403568;22;20069;-69
2023/12/22 06:43:51;;;;;;;40.17;27.47;;;7.00;99.90;;;;;;6403174;22;20419;-68
2023/12/22 06:46:18;;;;;;;37.83;27.63;;;7.00;99.90;;;;;;6402804;22;19998;-69
2023/12/22 06:48:44;;;;;;;40.00;27.67;;;7.00;99.90;;;;;;6403085;22;20009;-69
2023/12/22 06:51:19;;;;;;;36.13;27.03;;;7.00;99.90;;;;;;6403327;22;20000;-68
2023/12/22 06:53:45;;;;;;;39.00;28.30;;;7.10;99.90;;;;;;6403551;22;20013;-69
2023/12/22 06:56:25;;;;;;;46.23;28.70;;;7.10;99.90;;;;;;6403316;22;20376;-69
2023/12/22 06:58:53;;;;;;;46.33;28.57;;;7.10;99.90;;;;;;6403501;22;19998;-69
2023/12/22 07:01:22;;;;;;;68.87;30.53;;;7.10;99.90;;;;;;6403763;22;20067;-69
2023/12/22 07:03:48;;;;;;;68.90;30.50;;;7.10;99.90;;;;;;6402752;22;20005;-75
2023/12/22 07:06:15;;;;;;;67.17;31.60;;;7.10;99.90;;;;;;6403885;22;20054;-78
2023/12/22 07:08:42;;;;;;;96.80;32.27;;;7.10;99.90;;;;;;6375963;22;20041;-74
2023/12/22 07:11:11;;;;;;;67.80;30.57;;;7.10;99.90;;;;;;6403227;22;19998;-73
2023/12/22 07:13:37;;;;;;;67.30;30.63;;;7.00;99.90;;;;;;6402552;22;20025;-72
2023/12/22 07:16:05;;;;;;;60.77;29.70;;;7.00;99.90;;;;;;6403018;22;20009;-72
2023/12/22 07:18:30;;;;;;;47.87;29.27;;;7.00;99.90;;;;;;6402707;22;20088;-71
2023/12/22 07:20:57;;;;;;;46.90;30.33;;;7.00;99.90;;;;;;6402101;22;20022;-73
2023/12/22 07:23:23;;;;;;;52.70;29.13;;;7.00;99.90;;;;;;6402853;22;20025;-72
2023/12/22 07:25:49;;;;;;;41.87;27.63;;;7.00;99.90;;;;;;6403375;22;20010;-74
2023/12/22 07:28:17;;;;;;;42.53;28.80;;;7.00;99.90;;;;;;6375006;22;20431;-72
2023/12/22 07:30:43;;;;;;;46.90;30.80;;;7.00;99.90;;;;;;6403011;22;19998;-72
2023/12/22 07:33:09;;;;;;;47.17;29.90;;;7.00;99.90;;;;;;6402971;22;19998;-73
2023/12/22 07:35:35;;;;;;;52.57;32.10;;;7.00;99.90;;;;;;6402809;22;20447;-72
2023/12/22 07:38:02;;;;;;;56.77;33.17;;;7.00;99.90;;;;;;6401873;22;19998;-72
2023/12/22 07:40:30;;;;;;;53.30;33.23;;;7.00;99.90;;;;;;6402375;22;20002;-71
2023/12/22 07:42:56;;;;;;;63.70;33.50;;;7.00;99.90;;;;;;6401918;22;20010;-70
2023/12/22 07:45:22;;;;;;;55.43;33.90;;;7.00;99.90;;;;;;6402397;22;20416;-71
2023/12/22 07:47:48;;;;;;;62.70;32.60;;;7.00;99.90;;;;;;6402340;22;20083;-70
2023/12/22 07:50:14;;;;;;;54.87;33.53;;;7.00;99.90;;;;;;6402071;22;20042;-71
2023/12/22 07:52:40;;;;;;;55.27;30.70;;;7.00;99.90;;;;;;6402831;22;20009;-70
2023/12/22 07:55:08;;;;;;;53.07;33.03;;;7.00;99.90;;;;;;6402709;22;20077;-71
2023/12/22 07:57:34;;;;;;;48.53;30.93;;;7.00;99.90;;;;;;6402423;22;20709;-72
2023/12/22 07:59:59;;;;;;;56.77;31.67;;;7.00;99.90;;;;;;6402440;22;20001;-72
2023/12/22 08:02:25;;;;;;;53.37;31.70;;;7.00;99.90;;;;;;6402983;22;19997;-72
2023/12/22 08:04:51;;;;;;;55.30;32.57;;;7.00;99.90;;;;;;6374707;22;20008;-71
2023/12/22 08:07:16;;;;;;;54.20;30.80;;;7.00;99.90;;;;;;6374393;22;20006;-72
2023/12/22 08:09:42;;;;;;;50.87;29.40;;;7.00;99.90;;;;;;6402793;22;20043;-72
2023/12/22 08:12:08;;;;;;;52.27;30.50;;;7.10;99.90;;;;;;6402190;22;20081;-71
2023/12/22 08:14:34;;;;;;;49.67;31.60;;;7.10;99.90;;;;;;6402592;22;20005;-72
2023/12/22 08:17:00;;;;;;;48.97;30.97;;;7.10;99.90;;;;;;6372212;22;20116;-75
2023/12/22 08:19:25;;;;;;;59.47;29.60;;;7.10;99.90;;;;;;6399023;22;20025;-72
2023/12/22 08:21:55;;;;;;;50.87;28.70;;;7.10;99.90;;;;;;6398650;22;20005;-72
2023/12/22 08:24:21;;;;;;;47.17;27.73;;;7.20;99.90;;;;;;6401761;22;20085;-70
2023/12/22 08:26:47;;;;;;;52.97;30.33;;;7.20;99.90;;;;;;6402402;22;20431;-71
2023/12/22 08:29:14;;;;;;;45.23;29.27;;;7.20;99.90;;;;;;6402136;22;19998;-72
2023/12/22 08:31:39;;;;;;;48.23;29.57;;;7.30;99.90;;;;;;6401765;22;19998;-72
2023/12/22 08:34:05;;;;;;;50.63;27.93;;;7.30;99.90;;;;;;6402615;22;19998;-71
2023/12/22 08:36:31;;;;;;;42.13;26.80;;;7.30;99.90;;;;;;6400742;22;20025;-73
2023/12/22 08:38:57;;;;;;;45.13;29.23;;;7.40;99.90;;;;;;6399214;22;20005;-69
2023/12/22 08:41:24;;;;;;;41.47;27.03;;;7.40;99.90;;;;;;6400264;22;20494;-69
2023/12/22 08:43:50;;;;;;;43.87;28.33;;;7.50;99.90;;;;;;6402932;22;20001;-70
2023/12/22 08:46:15;;;;;;;45.87;28.17;;;7.60;99.90;;;;;;6402287;22;20001;-69
2023/12/22 08:48:42;;;;;;;48.60;28.10;;;7.70;99.90;;;;;;6402278;22;19998;-69
2023/12/22 08:51:07;;;;;;;47.73;31.17;;;7.70;99.90;;;;;;6402074;22;20463;-69
2023/12/22 08:53:37;;;;;;;58.20;35.23;;;7.70;99.90;;;;;;6402053;22;20018;-69
2023/12/22 08:56:03;;;;;;;56.10;34.63;;;7.80;99.90;;;;;;6401873;22;20335;-70
2023/12/22 08:58:29;;;;;;;47.97;32.67;;;7.90;99.90;;;;;;6402096;22;20499;-70
2023/12/22 09:00:55;;;;;;;49.00;32.20;;;8.00;99.90;;;;;;6402462;22;20002;-70
2023/12/22 09:03:21;;;;;;;44.67;32.30;;;8.00;99.90;;;;;;6402295;22;19998;-69
2023/12/22 09:05:47;;;;;;;47.80;32.40;;;8.10;99.90;;;;;;6400515;22;20010;-68
2023/12/22 09:08:13;;;;;;;45.67;30.90;;;8.20;99.90;;;;;;6399313;22;19994;-66
2023/12/22 09:10:39;;;;;;;47.43;30.87;;;8.30;99.90;;;;;;6400253;22;20005;-68
2023/12/22 09:13:04;;;;;;;46.63;31.60;;;8.30;99.90;;;;;;6399399;22;20018;-65
2023/12/22 09:15:30;;;;;;;49.20;31.37;;;8.40;99.90;;;;;;6399195;22;20023;-68
2023/12/22 09:17:56;;;;;;;41.63;29.97;;;8.50;99.90;;;;;;6399534;22;19998;-68
2023/12/22 09:20:22;;;;;;;47.60;30.47;;;8.60;99.90;;;;;;6400301;22;20020;-69
2023/12/22 09:22:48;;;;;;;45.03;30.33;;;8.70;99.90;;;;;;6402142;22;20002;-68
2023/12/22 09:25:14;;;;;;;36.90;28.37;;;8.80;99.90;;;;;;6402170;22;20073;-68
2023/12/22 09:27:39;;;;;;;35.37;26.63;;;8.90;99.90;;;;;;6402467;22;20079;-69
2023/12/22 09:30:08;;;;;;;40.80;27.10;;;9.00;99.90;;;;;;6402082;22;20289;-69
2023/12/22 09:32:34;;;;;;;36.23;26.77;;;9.10;99.90;;;;;;6401993;22;20005;-68
2023/12/22 09:35:00;;;;;;;32.63;26.73;;;9.10;99.90;;;;;;6401832;22;20010;-68
2023/12/22 09:37:26;;;;;;;36.57;26.47;;;9.20;99.90;;;;;;6401957;22;20458;-69
2023/12/22 09:39:53;;;;;;;36.87;25.50;;;9.30;99.90;;;;;;6402078;22;19994;-68
2023/12/22 09:42:21;;;;;;;38.53;26.83;;;9.40;99.90;;;;;;6401843;22;20006;-68
2023/12/22 09:44:52;;;;;;;37.93;26.10;;;9.50;99.90;;;;;;6401704;22;20025;-68
2023/12/22 09:47:19;;;;;;;36.77;27.43;;;9.50;99.90;;;;;;6401934;22;20001;-68
2023/12/22 09:49:46;;;;;;;47.80;31.73;;;9.60;99.90;;;;;;6401914;22;20002;-69
2023/12/22 09:52:13;;;;;;;47.37;35.67;;;9.70;99.90;;;;;;6401532;22;20443;-68
2023/12/22 09:54:41;;;;;;;46.37;35.37;;;9.70;99.90;;;;;;6401224;22;19993;-68
2023/12/22 09:57:07;;;;;;;58.33;40.53;;;9.70;99.90;;;;;;6401081;22;20013;-69
2023/12/22 09:59:35;;;;;;;62.27;42.73;;;9.80;99.90;;;;;;6401577;22;20408;-67
2023/12/22 10:02:02;;;;;;;64.10;44.33;;;9.80;99.90;;;;;;6401561;22;20025;-69
2023/12/22 10:04:28;;;;;;;54.90;41.20;;;9.80;99.90;;;;;;6401399;22;19994;-68
2023/12/22 10:07:00;;;;;;;56.70;39.63;;;9.80;99.90;;;;;;6401609;22;20005;-68
2023/12/22 10:09:27;;;;;;;54.58;37.72;;;9.70;99.90;;;;;;6401853;22;20081;-68
2023/12/22 10:11:53;;;;;;;45.50;35.60;;;9.60;99.90;;;;;;6401492;22;20017;-66
2023/12/22 10:14:22;;;;;;;51.47;36.87;;;9.50;99.90;;;;;;6401168;22;20008;-66
2023/12/22 10:16:51;;;;;;;47.43;35.87;;;9.50;99.90;;;;;;6400979;22;20336;-69
2023/12/22 10:19:17;;;;;;;52.43;38.70;;;9.40;99.90;;;;;;6401125;22;20034;-68
2023/12/22 10:21:43;;;;;;;56.93;38.47;;;9.40;99.90;;;;;;6401584;22;20002;-69
2023/12/22 10:24:47;;;;;;;49.67;36.53;;;9.50;99.90;;;;;;6401525;22;20064;-67
2023/12/22 10:27:13;;;;;;;53.67;37.93;;;9.50;99.90;;;;;;6401480;22;20002;-69
2023/12/22 10:29:40;;;;;;;52.43;39.30;;;9.50;99.90;;;;;;6401427;22;20063;-68
2023/12/22 10:32:07;;;;;;;55.50;41.60;;;9.50;99.90;;;;;;6401357;22;20002;-68
2023/12/22 10:34:33;;;;;;;56.83;42.20;;;9.50;99.90;;;;;;6401220;22;20002;-69
2023/12/22 10:37:01;;;;;;;58.97;41.70;;;9.60;99.90;;;;;;6401230;22;20024;-69
2023/12/22 10:39:30;;;;;;;55.73;41.67;;;9.60;99.90;;;;;;6401148;22;20036;-69
2023/12/22 10:42:00;;;;;;;60.80;42.93;;;9.60;99.90;;;;;;6401389;22;20059;-69
2023/12/22 10:44:27;;;;;;;57.87;42.37;;;9.70;99.90;;;;;;6401245;22;20065;-69
2023/12/22 10:46:54;;;;;;;58.83;42.47;;;9.70;99.90;;;;;;6401284;22;20076;-68
2023/12/22 10:49:21;;;;;;;54.17;41.97;;;9.70;99.90;;;;;;6400326;22;20374;-69
2023/12/22 10:51:47;;;;;;;57.03;42.53;;;9.80;99.90;;;;;;6373047;22;20313;-66
2023/12/22 10:54:13;;;;;;;60.00;44.17;;;9.80;99.90;;;;;;6401307;22;20006;-68
2023/12/22 10:56:40;;;;;;;57.33;42.83;;;9.90;99.90;;;;;;6401598;22;20024;-67
2023/12/22 10:59:09;;;;;;;54.77;41.60;;;9.90;99.90;;;;;;6401311;22;20450;-66
2023/12/22 11:01:39;;;;;;;55.17;41.80;;;10.00;99.90;;;;;;6401046;22;20453;-69
2023/12/22 11:04:09;;;;;;;55.77;41.40;;;10.10;99.90;;;;;;6401492;22;20069;-68
2023/12/22 11:06:39;;;;;;;58.50;43.08;;;10.10;99.90;;;;;;6401249;22;20504;-68
2023/12/22 11:09:09;;;;;;;54.33;42.30;;;10.20;99.90;;;;;;6400991;22;20423;-68
2023/12/22 11:11:38;;;;;;;56.80;42.17;;;10.20;99.90;;;;;;6373139;22;20058;-68
2023/12/22 11:14:05;;;;;;;57.57;44.03;;;10.30;99.90;;;;;;6401802;22;20016;-69
2023/12/22 11:16:35;;;;;;;57.78;43.33;;;10.30;99.90;;;;;;6401362;22;20410;-68
2023/12/22 11:19:02;;;;;;;54.92;42.38;;;10.40;99.90;;;;;;6401307;22;20009;-68
2023/12/22 11:21:29;;;;;;;60.10;42.95;;;10.50;99.90;;;;;;6400460;22;20570;-68
2023/12/22 11:23:55;;;;;;;61.25;42.55;;;10.50;99.90;;;;;;6401259;22;19994;-68
2023/12/22 11:26:22;;;;;;;54.95;41.42;;;10.50;99.90;;;;;;6402238;22;20491;-68
2023/12/22 11:28:50;;;;;;;58.85;41.85;;;;;;;;;;6403132;22;19998;-68
2023/12/22 11:31:17;;;;;;;58.45;42.05;;;;;;;;;;6403425;22;20088;-69
2023/12/22 11:33:50;;;;;;;56.95;42.33;;;10.50;99.90;;;;;;6403461;22;20006;-69
2023/12/22 11:36:19;;;;;;;58.90;40.80;;;10.70;99.90;;;;;;6403022;22;20006;-69
2023/12/22 11:38:46;;;;;;;52.47;40.83;;;10.70;99.90;;;;;;6403735;22;20350;-67
2023/12/22 11:41:16;;;;;;;60.00;40.28;;;10.70;99.90;;;;;;6402611;22;20078;-67
2023/12/22 11:43:44;;;;;;;52.07;42.07;;;10.80;99.90;;;;;;6402826;22;20032;-72
2023/12/22 11:46:10;;;;;;;53.95;40.55;;;10.80;99.90;;;;;;6402729;22;19998;-68
2023/12/22 11:48:36;;;;;;;51.05;39.90;;;10.90;99.90;;;;;;6402427;22;19998;-66
2023/12/22 11:51:13;;;;;;;50.40;39.90;;;10.90;99.90;;;;;;6402658;22;20146;-66
2023/12/22 11:53:39;;;;;;;46.92;37.53;;;11.00;99.90;;;;;;6403241;22;20324;-67
2023/12/22 11:56:08;;;;;;;55.53;39.40;;;11.00;99.90;;;;;;6402298;22;20090;-68
2023/12/22 11:58:42;;;;;;;49.53;38.55;;;11.10;99.90;;;;;;6402876;22;20002;-68
2023/12/22 12:01:12;;;;;;;49.47;38.67;;;11.10;99.90;;;;;;6402794;22;19998;-68
2023/12/22 12:03:47;;;;;;;52.92;38.50;;;11.10;99.90;;;;;;6375186;22;20358;-68
2023/12/22 12:06:17;;;;;;;51.30;37.95;;;11.20;99.90;;;;;;6400304;22;20442;-68
2023/12/22 12:08:43;;;;;;;49.25;37.08;;;11.20;99.90;;;;;;6401334;22;19998;-68
2023/12/22 12:11:09;;;;;;;45.78;35.95;;;11.20;99.90;;;;;;6402831;22;20407;-68
2023/12/22 12:13:41;;;;;;;49.80;36.55;;;11.20;99.90;;;;;;6400121;22;20010;-67
2023/12/22 12:16:07;;;;;;;49.38;36.42;;;11.20;99.90;;;;;;6398725;22;20021;-68
2023/12/22 12:18:34;;;;;;;48.25;37.08;;;11.20;99.90;;;;;;6400802;22;19994;-68
2023/12/22 12:21:00;;;;;;;50.00;36.35;;;11.20;99.90;;;;;;6374159;22;20014;-68
2023/12/22 12:23:29;;;;;;;48.47;36.90;;;11.30;99.90;;;;;;6402423;22;19994;-68
2023/12/22 12:25:55;;;;;;;46.80;37.15;;;11.30;99.90;;;;;;6402152;22;19998;-67
2023/12/22 12:28:27;;;;;;;45.78;37.30;;;11.20;99.90;;;;;;6401937;22;20002;-68
2023/12/22 12:31:00;;;;;;;48.88;36.00;;;11.30;99.90;;;;;;6401846;22;19998;-67
2023/12/22 12:33:26;;;;;;;47.67;36.03;;;11.30;99.90;;;;;;6402626;22;20113;-67
2023/12/22 12:35:57;;;;;;;47.30;36.45;;;11.30;99.90;;;;;;6401500;22;20082;-67
2023/12/22 12:38:40;;;;;;;48.05;38.08;;;11.30;99.90;;;;;;6399830;22;20006;-68
2023/12/22 12:41:05;;;;;;;46.17;37.97;;;11.30;99.90;;;;;;6398817;22;20002;-67